Аэропорт: Астана. Астана

ICAO: UACC

METAR:
2021-04-21 21:30:00
UACC 212130Z 03002MPS 8000 NSC M00/M07 Q1032 R04/0///70 NOSIG RMK QFE742/0990
METAR:
2021-04-21 17:01:00
TAF UACC 211701Z 2118/2218 02004MPS 9999 NSC TX09/2211Z TNM05/2123Z TEMPO 2121/2203 04005MPS